Station Historical Data
Daily Summary for November 9, 2017 Units:  Metric    English   Both
« Previous Day
Next Day »
Daily Weekly Monthly Yearly Custom
  High: Low: Average:
Temperature: 11.7 °C 7.4 °C 9.9 °C
Dew Point: 10.4 °C 6.5 °C 8.8 °C
Humidity: 94% 90% 93%
Wind Speed: 7.4km/h 0km/h 0.5km/h
Wind Gust: 7.4km/h - -
Wind- - WSW
Pressure: 1021.6 hPa 1018.5 hPa -
Precipitation: 13.97 mm    
Historical Graphs
 
 
Tabular Data for November 9, 2017
Time Temperature Dew Point Pressure Wind Wind Speed Wind Gust Humidity Rainfall Rate (Hourly) solar Conditions
00:02 10.1 °C 9 °C 1020.2 hPa Calm     93% 0 mm WeatherDisplay:10.37 W/m2 OVC
00:07 10.1 °C 9.1 °C 1020.2 hPa Calm     93% 0 mm WeatherDisplay:10.37 W/m2 OVC
00:12 10.1 °C 9.1 °C 1020.2 hPa WNW 1.9 km/h 1.9 km/h 93% 0 mm WeatherDisplay:10.37 W/m2 OVC
00:17 10.1 °C 9 °C 1019.9 hPa Calm     93% 0 mm WeatherDisplay:10.37 W/m2 OVC
00:22 10.1 °C 9 °C 1019.9 hPa Calm     93% 0 mm WeatherDisplay:10.37 W/m2 OVC
00:27 10.1 °C 9.1 °C 1019.9 hPa Calm   0.2 km/h 93% 0 mm WeatherDisplay:10.37 W/m2 OVC
00:32 10.1 °C 9 °C 1019.9 hPa Calm     93% 0 mm WeatherDisplay:10.37 W/m2 OVC
00:37 10.1 °C 8.8 °C 1019.9 hPa West 1.9 km/h   92% 0 mm WeatherDisplay:10.37 W/m2 OVC
00:43 10 °C 8.9 °C 1019.9 hPa Calm     93% 0 mm WeatherDisplay:10.37 W/m2 OVC
00:48 10 °C 8.8 °C 1019.9 hPa West 1.9 km/h   92% 0 mm WeatherDisplay:10.37 W/m2 OVC
00:53 10 °C 8.8 °C 1019.9 hPa West 1.9 km/h   92% 0 mm WeatherDisplay:10.37 W/m2 OVC
00:58 10 °C 8.8 °C 1020.2 hPa Calm     92% 0 mm WeatherDisplay:10.37 W/m2 OVC
01:03 10 °C 8.8 °C 1019.9 hPa Calm     92% 0 mm WeatherDisplay:10.37 W/m2 -DZ
01:08 9.9 °C 8.7 °C 1020.2 hPa West 1.9 km/h 1.9 km/h 92% 0 mm WeatherDisplay:10.37 W/m2 -DZ
01:13 9.9 °C 8.7 °C 1020.2 hPa West 1.9 km/h 1.9 km/h 92% 0 mm WeatherDisplay:10.37 W/m2 OVC
01:18 9.9 °C 8.7 °C 1020.2 hPa West 1.9 km/h 1.9 km/h 92% 0 mm WeatherDisplay:10.37 W/m2 OVC
01:23 9.8 °C 8.6 °C 1019.9 hPa West 1.9 km/h 1.9 km/h 92% 0.25 mm WeatherDisplay:10.37 W/m2 -DZ
01:28 9.8 °C 8.6 °C 1019.9 hPa Calm     92% 0.25 mm WeatherDisplay:10.37 W/m2 -DZ
01:33 9.7 °C 8.5 °C 1019.9 hPa Calm     92% 0.51 mm WeatherDisplay:10.37 W/m2 -DZ
01:39 9.7 °C 8.5 °C 1019.9 hPa Calm     92% 0.76 mm WeatherDisplay:10.37 W/m2 -DZ
01:44 9.7 °C 8.4 °C 1020.2 hPa Calm     92% 0.76 mm WeatherDisplay:10.37 W/m2 -DZ
01:49 9.6 °C 8.4 °C 1020.2 hPa Calm     92% 1.02 mm WeatherDisplay:10.37 W/m2 -DZ
01:54 9.6 °C 8.6 °C 1020.2 hPa Calm     93% 1.52 mm WeatherDisplay:10.37 W/m2 -RA
01:59 9.6 °C 8.6 °C 1020.2 hPa Calm     93% 1.78 mm WeatherDisplay:10.37 W/m2 -RA
02:04 9.6 °C 8.5 °C 1020.2 hPa WNW 1.9 km/h 1.9 km/h 93% 2.03 mm WeatherDisplay:10.37 W/m2 -RA
02:09 9.6 °C 8.5 °C 1020.2 hPa West 1.9 km/h 1.9 km/h 93% 2.29 mm WeatherDisplay:10.37 W/m2 -RA
02:14 9.6 °C 8.5 °C 1020.2 hPa Calm     93% 2.29 mm WeatherDisplay:10.37 W/m2 -RA
02:19 9.5 °C 8.4 °C 1020.2 hPa Calm     93% 2.29 mm WeatherDisplay:10.37 W/m2 -RA
02:24 9.5 °C 8.4 °C 1020.2 hPa Calm     93% 2.29 mm WeatherDisplay:10.37 W/m2 -RA
02:29 9.5 °C 8.4 °C 1019.9 hPa Calm     93% 2.29 mm WeatherDisplay:10.37 W/m2 -RA
02:34 9.5 °C 8.4 °C 1020.2 hPa Calm     93% 2.79 mm WeatherDisplay:10.37 W/m2 -RA
02:39 9.5 °C 8.4 °C 1020.2 hPa West 1.9 km/h   93% 2.79 mm WeatherDisplay:10.37 W/m2 -RA
02:44 9.4 °C 8.4 °C 1020.2 hPa Calm     93% 2.79 mm WeatherDisplay:10.37 W/m2 -RA
02:49 9.5 °C 8.4 °C 1019.9 hPa West 1.9 km/h   93% 2.79 mm WeatherDisplay:10.37 W/m2 -RA
02:54 9.4 °C 8.4 °C 1019.9 hPa Calm     93% 2.79 mm WeatherDisplay:10.37 W/m2 -RA
02:59 9.4 °C 8.4 °C 1019.9 hPa West 1.9 km/h   93% 2.79 mm WeatherDisplay:10.37 W/m2 -RA
03:04 9.5 °C 8.4 °C 1019.5 hPa Calm     93% 2.79 mm WeatherDisplay:10.37 W/m2 -RA
03:09 9.4 °C 8.4 °C 1019.5 hPa WNW 1.9 km/h 1.9 km/h 93% 2.79 mm WeatherDisplay:10.37 W/m2 -RA
03:14 9.4 °C 8.4 °C 1019.2 hPa West 3.2 km/h 3.2 km/h 93% 3.05 mm WeatherDisplay:10.37 W/m2 -RA
03:19 9.4 °C 8.3 °C 1019.2 hPa Calm     93% 3.05 mm WeatherDisplay:10.37 W/m2 -RA
03:24 9.4 °C 8.3 °C 1019.5 hPa West 1.9 km/h 1.9 km/h 93% 3.3 mm WeatherDisplay:10.37 W/m2 -RA
03:30 9.3 °C 8.3 °C 1019.2 hPa West 1.9 km/h   93% 3.3 mm WeatherDisplay:10.37 W/m2 -RA
03:35 9.3 °C 8.2 °C 1019.2 hPa Calm   1.6 km/h 93% 0.51 mm WeatherDisplay:10.37 W/m2 -RA
03:40 9.2 °C 8.2 °C 1018.8 hPa Calm   1.6 km/h 93% 0.25 mm WeatherDisplay:10.37 W/m2 -RA
03:45 9.2 °C 8.1 °C 1018.8 hPa Calm   1.6 km/h 93% 0 mm WeatherDisplay:10.37 W/m2 -RA
03:50 9.1 °C 8.1 °C 1018.5 hPa Calm   1.6 km/h 93% 0 mm WeatherDisplay:10.37 W/m2 -RA
03:55 9.1 °C 8 °C 1018.8 hPa Calm   1.6 km/h 93% 0 mm WeatherDisplay:10.37 W/m2 -RA
04:00 9.1 °C 8 °C 1018.8 hPa Calm   1.6 km/h 93% 0 mm WeatherDisplay:10.37 W/m2 -RA
04:05 9 °C 7.9 °C 1018.8 hPa Calm   1.6 km/h 93% 0.25 mm WeatherDisplay:10.37 W/m2 -RA
04:10 8.9 °C 7.9 °C 1018.8 hPa West 1.6 km/h 3.2 km/h 93% 0 mm WeatherDisplay:10.37 W/m2 -RA
04:15 8.9 °C 7.9 °C 1018.8 hPa Calm   1.6 km/h 93% 0 mm WeatherDisplay:10.37 W/m2 -RA
04:20 8.9 °C 7.8 °C 1019.2 hPa Calm   1.6 km/h 93% 0 mm WeatherDisplay:10.37 W/m2 -RA
04:25 8.9 °C 7.8 °C 1019.2 hPa Calm   1.6 km/h 93% 0 mm WeatherDisplay:10.37 W/m2 -RA
04:30 8.9 °C 7.8 °C 1019.2 hPa Calm   1.6 km/h 93% 0.25 mm WeatherDisplay:10.37 W/m2 -RA
04:35 8.9 °C 7.9 °C 1019.2 hPa Calm   1.6 km/h 93% 0.25 mm WeatherDisplay:10.37 W/m2 -RA
04:40 8.9 °C 7.9 °C 1019.2 hPa Calm     93% 0 mm WeatherDisplay:10.37 W/m2 -RA
04:45 8.9 °C 7.9 °C 1019.5 hPa Calm   1.6 km/h 93% 0 mm WeatherDisplay:10.37 W/m2 -RA
04:50 8.9 °C 7.9 °C 1019.5 hPa Calm     93% 0 mm WeatherDisplay:10.37 W/m2 -RA
04:55 8.9 °C 7.9 °C 1019.2 hPa Calm   1.6 km/h 93% 0.51 mm WeatherDisplay:10.37 W/m2 -RA
05:00 8.9 °C 7.9 °C 1019.5 hPa Calm     93% 0 mm WeatherDisplay:10.37 W/m2 -RA
05:05 8.9 °C 7.9 °C 1019.5 hPa Calm   1.6 km/h 93% 0 mm WeatherDisplay:10.37 W/m2 -RA
05:10 8.9 °C 7.9 °C 1019.5 hPa Calm     93% 0 mm WeatherDisplay:10.37 W/m2 -RA
05:15 8.9 °C 7.9 °C 1019.5 hPa Calm     93% 0.25 mm WeatherDisplay:10.37 W/m2 -RA
05:20 8.9 °C 7.9 °C 1019.5 hPa Calm     93% 2.29 mm WeatherDisplay:10.37 W/m2 -RA
05:25 8.9 °C 7.9 °C 1019.5 hPa West 1.9 km/h   93% 2.03 mm WeatherDisplay:10.37 W/m2 -RA
05:30 8.9 °C 8.1 °C 1019.5 hPa Calm     94% 2.29 mm WeatherDisplay:10.37 W/m2 -RA
05:35 9 °C 8.1 °C 1019.5 hPa Calm     94% 0 mm WeatherDisplay:10.37 W/m2 -RA
05:40 9 °C 8.1 °C 1019.5 hPa Calm   1.6 km/h 94% 0 mm WeatherDisplay:10.37 W/m2 -RA
05:45 9 °C 8.1 °C 1019.5 hPa Calm     94% 0.25 mm WeatherDisplay:10.37 W/m2 -RA
05:50 9.1 °C 8.2 °C 1019.5 hPa Calm     94% 0 mm WeatherDisplay:10.37 W/m2 -RA
05:55 9.1 °C 8.2 °C 1019.9 hPa Calm     94% 0 mm WeatherDisplay:10.37 W/m2 -RA
06:00 9.1 °C 8.2 °C 1019.9 hPa Calm     94% 0 mm WeatherDisplay:10.37 W/m2 -RA
06:05 9.1 °C 8.2 °C 1019.9 hPa Calm     94% 1.02 mm WeatherDisplay:10.37 W/m2 OVC
06:10 9.2 °C 8.2 °C 1020.2 hPa Calm     94% 0 mm WeatherDisplay:10.37 W/m2 OVC
06:15 9.1 °C 8.2 °C 1020.2 hPa Calm     94% 0.25 mm WeatherDisplay:10.37 W/m2 -DZ
06:20 9.1 °C 8.2 °C 1020.2 hPa Calm     94% 0 mm WeatherDisplay:10.37 W/m2 -DZ
06:25 9.1 °C 8.2 °C 1020.2 hPa Calm   1.6 km/h 94% 0 mm WeatherDisplay:10.37 W/m2 -DZ
06:30 9.1 °C 8.2 °C 1020.2 hPa Calm     94% 0 mm WeatherDisplay:10.37 W/m2 -DZ
06:35 9.1 °C 8.2 °C 1019.9 hPa Calm   1.6 km/h 94% 0.25 mm WeatherDisplay:10.37 W/m2 -DZ
06:40 9 °C 7.9 °C 1019.9 hPa Calm   1.6 km/h 93% 0 mm WeatherDisplay:10.37 W/m2 -DZ
06:45 9.1 °C 8.2 °C 1020.2 hPa Calm     94% 0.25 mm WeatherDisplay:10.37 W/m2 -RA
06:50 9.1 °C 8.2 °C 1020.2 hPa Calm     94% 0 mm WeatherDisplay:10.37 W/m2 -RA
06:55 9.1 °C 8.2 °C 1020.2 hPa Calm     94% 0 mm WeatherDisplay:10.37 W/m2 -RA
07:00 9.1 °C 8.2 °C 1020.2 hPa Calm     94% 0 mm WeatherDisplay:10.37 W/m2 -RA
07:05 9.2 °C 8.3 °C 1020.2 hPa Calm     94% 1.52 mm WeatherDisplay:10.37 W/m2 -RA
07:10 9.2 °C 8.3 °C 1020.5 hPa Calm     94% 1.52 mm WeatherDisplay:10.37 W/m2 -RA
07:15 9.1 °C 8.2 °C 1020.5 hPa Calm     94% 1.52 mm WeatherDisplay:10.37 W/m2 -RA
07:20 9.1 °C 8.2 °C 1020.5 hPa Calm     94% 1.52 mm WeatherDisplay:10.37 W/m2 -RA
07:25 9.2 °C 8.3 °C 1020.5 hPa Calm     94% 1.78 mm WeatherDisplay:10.37 W/m2 -RA
07:30 9.2 °C 8.3 °C 1020.9 hPa Calm     94% 1.52 mm WeatherDisplay:10.37 W/m2 -RA
07:35 9.2 °C 8.3 °C 1020.9 hPa Calm     94% 1.52 mm WeatherDisplay:10.37 W/m2 -RA
07:40 9.3 °C 8.4 °C 1020.9 hPa Calm     94% 1.52 mm WeatherDisplay:10.37 W/m2 -RA
07:45 9.3 °C 8.4 °C 1020.9 hPa Calm     94% 1.27 mm WeatherDisplay:10.37 W/m2 -RA
07:50 9.3 °C 8.4 °C 1020.9 hPa Calm     94% 1.52 mm WeatherDisplay:10.37 W/m2 -RA
07:55 9.3 °C 8.4 °C 1020.9 hPa Calm     94% 1.52 mm WeatherDisplay:10.37 W/m2 -RA
08:00 9.4 °C 8.4 °C 1020.9 hPa Calm     94% 1.52 mm WeatherDisplay:10.37 W/m2 -RA
08:05 9.4 °C 8.4 °C 1020.9 hPa Calm     94% 1.52 mm WeatherDisplay:10.37 W/m2 -RA
08:10 9.4 °C 8.5 °C 1020.9 hPa Calm     94% 1.52 mm WeatherDisplay:10.37 W/m2 -RA
08:15 9.4 °C 8.5 °C 1020.9 hPa Calm     94% 1.27 mm WeatherDisplay:10.37 W/m2 -RA
08:20 9.5 °C 8.6 °C 1020.9 hPa Calm     94% 1.52 mm WeatherDisplay:10.37 W/m2 -RA
08:25 9.5 °C 8.6 °C 1020.9 hPa Calm     94% 1.27 mm WeatherDisplay:10.37 W/m2 -RA
08:30 9.5 °C 8.6 °C 1020.9 hPa Calm     94% 1.27 mm WeatherDisplay:10.37 W/m2 -RA
08:36 9.6 °C 8.6 °C 1020.9 hPa Calm     94% 1.02 mm WeatherDisplay:10.37 W/m2 -RA
08:41 9.6 °C 8.6 °C 1020.9 hPa Calm     94% 1.02 mm WeatherDisplay:10.37 W/m2 -RA
08:46 9.6 °C 8.6 °C 1021.2 hPa Calm     94% 1.02 mm WeatherDisplay:10.37 W/m2 -RA
08:51 9.6 °C 8.6 °C 1021.2 hPa Calm     94% 1.02 mm WeatherDisplay:10.37 W/m2 -RA
08:56 9.6 °C 8.7 °C 1021.2 hPa Calm     94% 0.76 mm WeatherDisplay:10.37 W/m2 -RA
09:01 9.6 °C 8.7 °C 1021.2 hPa Calm     94% 0.76 mm WeatherDisplay:10.37 W/m2 -RA
09:11 9.7 °C 8.7 °C 1021.6 hPa Calm     94% 0.51 mm WeatherDisplay:10.37 W/m2 -DZ
09:16 9.6 °C 8.7 °C 1021.2 hPa Calm     94% 0.51 mm WeatherDisplay:10.37 W/m2 -DZ
09:21 9.7 °C 8.7 °C 1021.2 hPa Calm     94% 0.25 mm WeatherDisplay:10.37 W/m2 OVC
09:26 9.7 °C 8.8 °C 1021.2 hPa Calm     94% 0.25 mm WeatherDisplay:10.37 W/m2 OVC
09:31 9.8 °C 8.8 °C 1021.2 hPa Calm     94% 0.25 mm WeatherDisplay:10.37 W/m2 OVC
09:36 9.8 °C 8.9 °C 1021.2 hPa Calm     94% 0.25 mm WeatherDisplay:10.37 W/m2 OVC
09:41 9.9 °C 8.9 °C 1021.2 hPa Calm     94% 0.25 mm WeatherDisplay:10.37 W/m2 OVC
09:46 9.9 °C 9 °C 1021.2 hPa Calm     94% 0 mm WeatherDisplay:10.37 W/m2 OVC
09:51 9.9 °C 9 °C 1021.2 hPa Calm     94% 0 mm WeatherDisplay:10.37 W/m2 OVC
09:56 10 °C 9.1 °C 1021.2 hPa Calm     94% 0 mm WeatherDisplay:10.37 W/m2 OVC
10:01 10.1 °C 9.1 °C 1021.2 hPa Calm     94% 0 mm WeatherDisplay:10.37 W/m2 OVC
10:06 10.1 °C 9.1 °C 1021.2 hPa Calm     94% 0 mm WeatherDisplay:10.37 W/m2 OVC
10:11 10.1 °C 9.2 °C 1021.2 hPa Calm     94% 0 mm WeatherDisplay:10.37 W/m2 -DZ
10:16 10.1 °C 9.1 °C 1021.2 hPa Calm     94% 0 mm WeatherDisplay:10.37 W/m2 -DZ
10:21 10.2 °C 9.2 °C 1021.2 hPa Calm     94% 0 mm WeatherDisplay:10.37 W/m2 -DZ
10:26 10.2 °C 9.2 °C 1021.2 hPa Calm     94% 0 mm WeatherDisplay:10.37 W/m2 -DZ
10:31 10.1 °C 9.1 °C 1021.2 hPa Calm     93% 0 mm WeatherDisplay:10.37 W/m2 -DZ
10:36 10.2 °C 9.1 °C 1021.2 hPa Calm     93% 0 mm WeatherDisplay:10.37 W/m2 -DZ
10:41 10.2 °C 9.2 °C 1021.2 hPa Calm     93% 0.25 mm WeatherDisplay:10.37 W/m2 -DZ
10:46 10.2 °C 9.2 °C 1021.2 hPa Calm     93% 0.25 mm WeatherDisplay:10.37 W/m2 -DZ
10:52 10.2 °C 9.2 °C 1020.9 hPa Calm     93% 0.25 mm WeatherDisplay:10.37 W/m2 -DZ
10:57 10.3 °C 9.2 °C 1020.2 hPa Calm     93% 0.25 mm WeatherDisplay:10.37 W/m2 -DZ
11:02 10.4 °C 9.3 °C 1020.2 hPa WNW 1.9 km/h 1.9 km/h 93% 0.25 mm WeatherDisplay:10.37 W/m2 OVC
11:07 10.3 °C 9.3 °C 1020.5 hPa Calm     93% 0.25 mm WeatherDisplay:10.37 W/m2 OVC
11:12 10.4 °C 9.3 °C 1020.9 hPa Calm     93% 0.25 mm WeatherDisplay:10.37 W/m2 OVC
11:17 10.3 °C 9.3 °C 1020.5 hPa Calm     93% 0.25 mm WeatherDisplay:10.37 W/m2 OVC
11:22 10.4 °C 9.3 °C 1020.5 hPa Calm     93% 0.25 mm WeatherDisplay:10.37 W/m2 OVC
11:26 10.5 °C 9.4 °C 1020.5 hPa Calm     93% 0.25 mm WeatherDisplay:10.37 W/m2 OVC
11:31 10.4 °C 9.3 °C 1020.5 hPa Calm     93% 0.25 mm WeatherDisplay:10.37 W/m2 OVC
11:36 10.4 °C 9.3 °C 1020.5 hPa Calm     93% 0.25 mm WeatherDisplay:10.37 W/m2 OVC
11:41 10.4 °C 9.3 °C 1020.5 hPa Calm     93% 0 mm WeatherDisplay:10.37 W/m2 OVC
11:46 10.4 °C 9.3 °C 1020.9 hPa Calm     93% 0 mm WeatherDisplay:10.37 W/m2 OVC
11:51 10.5 °C 9.4 °C 1020.9 hPa Calm     93% 0 mm WeatherDisplay:10.37 W/m2 OVC
11:56 10.5 °C 9.4 °C 1020.9 hPa Calm     93% 0 mm WeatherDisplay:10.37 W/m2 OVC
12:01 10.6 °C 9.4 °C 1020.9 hPa Calm     93% 0 mm WeatherDisplay:10.37 W/m2 OVC
12:06 10.6 °C 9.5 °C 1020.9 hPa Calm     93% 0 mm WeatherDisplay:10.37 W/m2 OVC
12:11 10.7 °C 9.6 °C 1020.9 hPa Calm     93% 0 mm WeatherDisplay:10.37 W/m2 OVC
12:16 10.6 °C 9.3 °C 1020.9 hPa Calm     92% 0 mm WeatherDisplay:10.37 W/m2 OVC
12:21 10.6 °C 9.4 °C 1020.5 hPa Calm     92% 0 mm WeatherDisplay:10.37 W/m2 OVC
12:26 10.7 °C 9.6 °C 1020.5 hPa Calm     93% 0 mm WeatherDisplay:10.37 W/m2 OVC
12:28 10.7 °C 9.6 °C 1020.5 hPa Calm     93% 0 mm WeatherDisplay:10.37 W/m2 OVC
12:33 10.8 °C 9.7 °C 1020.5 hPa Calm     93% 0 mm WeatherDisplay:10.37 W/m2 OVC
12:38 10.8 °C 9.7 °C 1020.2 hPa Calm     93% 0 mm WeatherDisplay:10.37 W/m2 OVC
12:43 10.8 °C 9.7 °C 1020.2 hPa NNW 1.6 km/h 1.6 km/h 93% 0 mm WeatherDisplay:10.37 W/m2 OVC
12:48 10.8 °C 9.6 °C 1019.9 hPa Calm     92% 0 mm WeatherDisplay:10.37 W/m2 OVC
12:53 10.9 °C 9.7 °C 1019.9 hPa East 1.6 km/h 1.6 km/h 92% 0 mm WeatherDisplay:10.37 W/m2 OVC
12:58 11 °C 9.7 °C 1019.9 hPa East 1.9 km/h 1.9 km/h 92% 0 mm WeatherDisplay:10.37 W/m2 OVC
13:03 11 °C 9.7 °C 1019.9 hPa Calm     92% 0 mm WeatherDisplay:10.37 W/m2 OVC
13:08 11.1 °C 9.8 °C 1019.9 hPa SW 1.9 km/h   92% 0 mm WeatherDisplay:10.37 W/m2 OVC
13:13 11.2 °C 9.9 °C 1019.9 hPa Calm     92% 0 mm WeatherDisplay:10.37 W/m2 OVC
13:18 11.2 °C 9.9 °C 1019.9 hPa Calm     92% 0 mm WeatherDisplay:10.37 W/m2 OVC
13:23 11.2 °C 9.9 °C 1019.9 hPa Calm     92% 0 mm WeatherDisplay:10.37 W/m2 OVC
13:28 11.2 °C 9.9 °C 1019.9 hPa WNW 1.9 km/h   92% 0 mm WeatherDisplay:10.37 W/m2 OVC
13:33 11.3 °C 10 °C 1019.9 hPa SSW 1.9 km/h   92% 0 mm WeatherDisplay:10.37 W/m2 OVC
13:38 11.3 °C 10 °C 1019.9 hPa Calm     92% 0 mm WeatherDisplay:10.37 W/m2 OVC
13:43 11.3 °C 10 °C 1019.9 hPa Calm     92% 0 mm WeatherDisplay:10.37 W/m2 OVC
13:48 11.3 °C 10 °C 1019.9 hPa Calm     92% 0 mm WeatherDisplay:10.37 W/m2 OVC
13:54 11.3 °C 10 °C 1019.9 hPa SSW 1.9 km/h   92% 0 mm WeatherDisplay:10.37 W/m2 OVC
13:59 11.3 °C 10 °C 1019.9 hPa Calm     92% 0 mm WeatherDisplay:10.37 W/m2 OVC
14:04 11.3 °C 10 °C 1019.9 hPa Calm     92% 0 mm WeatherDisplay:10.37 W/m2 OVC
14:09 11.2 °C 9.9 °C 1019.9 hPa Calm     92% 0 mm WeatherDisplay:10.37 W/m2 OVC
14:14 11.2 °C 9.9 °C 1019.9 hPa Calm   0.2 km/h 92% 0 mm WeatherDisplay:10.37 W/m2 OVC
14:19 11.3 °C 10.2 °C 1019.9 hPa Calm     93% 0 mm WeatherDisplay:10.37 W/m2 OVC
14:24 11.3 °C 10.2 °C 1019.9 hPa Calm     93% 0 mm WeatherDisplay:10.37 W/m2 OVC
14:29 11.4 °C 10.3 °C 1019.9 hPa Calm     93% 0 mm WeatherDisplay:10.37 W/m2 OVC
14:34 11.6 °C 10.4 °C 1019.9 hPa East 1.9 km/h   93% 0 mm WeatherDisplay:10.37 W/m2 OVC
14:39 11.5 °C 10.2 °C 1019.9 hPa East 1.9 km/h   92% 0 mm WeatherDisplay:10.37 W/m2 OVC
14:40 11.5 °C 10.3 °C 1019.9 hPa Calm   1.6 km/h 92% 0 mm WeatherDisplay:10.37 W/m2 OVC
14:45 11.6 °C 10.3 °C 1019.9 hPa Calm   4.8 km/h 92% 0 mm WeatherDisplay:10.37 W/m2 OVC
14:50 11.6 °C 10.3 °C 1019.9 hPa Calm   1.6 km/h 92% 0 mm WeatherDisplay:10.37 W/m2 OVC
14:55 11.6 °C 10.3 °C 1019.9 hPa Calm   1.6 km/h 92% 0 mm WeatherDisplay:10.37 W/m2 OVC
15:00 11.4 °C 10 °C 1019.9 hPa SW 1.6 km/h 1.6 km/h 91% 0 mm WeatherDisplay:10.37 W/m2 OVC
15:05 11.4 °C 9.9 °C 1019.9 hPa West 1.9 km/h 1.9 km/h 91% 0 mm WeatherDisplay:10.37 W/m2 OVC
15:10 11.4 °C 9.9 °C 1019.9 hPa Calm     91% 0 mm WeatherDisplay:10.37 W/m2 OVC
15:15 11.4 °C 10 °C 1019.9 hPa Calm     91% 0 mm WeatherDisplay:10.37 W/m2 OVC
15:20 11.6 °C 10.2 °C 1019.9 hPa WSW 1.9 km/h   91% 0 mm WeatherDisplay:10.37 W/m2 OVC
15:25 11.7 °C 10.2 °C 1020.2 hPa Calm     91% 0 mm WeatherDisplay:10.37 W/m2 OVC
15:30 11.7 °C 10.1 °C 1020.2 hPa Calm     90% 0 mm WeatherDisplay:10.37 W/m2 OVC
15:35 11.7 °C 10.3 °C 1020.5 hPa NE 1.9 km/h 1.9 km/h 91% 0 mm WeatherDisplay:10.37 W/m2 OVC
15:40 11.6 °C 10 °C 1020.5 hPa Calm     90% 0 mm WeatherDisplay:10.37 W/m2 OVC
15:45 11.6 °C 9.9 °C 1020.5 hPa Calm     90% 0 mm WeatherDisplay:10.37 W/m2 OVC
15:50 11.5 °C 9.9 °C 1020.5 hPa Calm     90% 0 mm WeatherDisplay:10.37 W/m2 OVC
15:55 11.5 °C 10.1 °C 1020.5 hPa Calm     91% 0 mm WeatherDisplay:10.37 W/m2 OVC
16:01 11.5 °C 10.1 °C 1020.2 hPa Calm     91% 0 mm WeatherDisplay:10.37 W/m2 OVC
16:06 11.5 °C 10.1 °C 1020.2 hPa Calm     91% 0 mm WeatherDisplay:10.37 W/m2 OVC
16:11 11.5 °C 10.1 °C 1020.5 hPa ESE 1.9 km/h 1.9 km/h 91% 0 mm WeatherDisplay:10.37 W/m2 OVC
16:16 11.5 °C 9.9 °C 1020.2 hPa SW 3.7 km/h 3.7 km/h 90% 0 mm WeatherDisplay:10.37 W/m2 OVC
16:21 11.4 °C 9.9 °C 1020.2 hPa Calm     90% 0 mm WeatherDisplay:10.37 W/m2 OVC
16:26 11.5 °C 9.9 °C 1020.2 hPa West 5.6 km/h 5.6 km/h 90% 0 mm WeatherDisplay:10.37 W/m2 OVC
16:31 11.6 °C 10.1 °C 1020.2 hPa WSW 1.9 km/h 1.9 km/h 91% 0 mm WeatherDisplay:10.37 W/m2 RA
16:36 11.6 °C 10.1 °C 1020.2 hPa West 1.6 km/h   91% 0 mm WeatherDisplay:10.37 W/m2 OVC
16:41 11.6 °C 9.9 °C 1020.2 hPa SE 1.9 km/h   90% 0 mm WeatherDisplay:10.37 W/m2 OVC
16:47 11.6 °C 9.9 °C 1020.2 hPa Calm     90% 0 mm WeatherDisplay:10.37 W/m2 OVC
16:52 11.6 °C 9.9 °C 1020.2 hPa Calm     90% 0 mm WeatherDisplay:10.37 W/m2 OVC
16:57 11.6 °C 9.9 °C 1020.2 hPa SE 1.9 km/h   90% 0 mm WeatherDisplay:10.37 W/m2 OVC
17:02 11.6 °C 9.9 °C 1020.2 hPa Calm     90% 0 mm WeatherDisplay:10.37 W/m2 OVC
17:07 11.6 °C 9.9 °C 1020.2 hPa West 3.7 km/h   90% 0 mm WeatherDisplay:10.37 W/m2 OVC
17:12 11.6 °C 9.9 °C 1020.5 hPa Calm     90% 0 mm WeatherDisplay:10.37 W/m2 OVC
17:17 11.5 °C 9.9 °C 1020.5 hPa WSW 7.4 km/h 7.4 km/h 90% 0 mm WeatherDisplay:10.37 W/m2 OVC
17:22 11.4 °C 9.9 °C 1020.5 hPa Calm     90% 0 mm WeatherDisplay:10.37 W/m2 OVC
17:27 11.4 °C 9.9 °C 1020.5 hPa Calm     90% 0 mm WeatherDisplay:10.37 W/m2 OVC
17:32 11.4 °C 9.9 °C 1020.5 hPa SSW 7.4 km/h 7.4 km/h 90% 0 mm WeatherDisplay:10.37 W/m2 OVC
17:37 11.4 °C 9.8 °C 1020.5 hPa Calm     90% 0 mm WeatherDisplay:10.37 W/m2 OVC
17:42 11.4 °C 9.8 °C 1020.9 hPa WSW 1.9 km/h 1.9 km/h 90% 0 mm WeatherDisplay:10.37 W/m2 OVC
17:47 11.3 °C 9.8 °C 1020.9 hPa WSW 1.9 km/h   90% 0 mm WeatherDisplay:10.37 W/m2 OVC
17:52 11.3 °C 9.7 °C 1020.9 hPa Calm     90% 0 mm WeatherDisplay:10.37 W/m2 OVC
17:57 11.2 °C 9.7 °C 1020.9 hPa SW 5 km/h 5 km/h 90% 0 mm WeatherDisplay:10.37 W/m2 OVC
18:02 11.2 °C 9.7 °C 1020.9 hPa WSW 1.6 km/h 1.6 km/h 90% 0 mm WeatherDisplay:10.37 W/m2 OVC
18:07 11.2 °C 9.6 °C 1020.9 hPa WNW 1.6 km/h 1.6 km/h 90% 0 mm WeatherDisplay:10.37 W/m2 OVC
18:12 11.2 °C 9.6 °C 1020.9 hPa Calm     90% 0 mm WeatherDisplay:10.37 W/m2 OVC
18:17 11.1 °C 9.6 °C 1020.9 hPa Calm     90% 0 mm WeatherDisplay:10.37 W/m2 OVC
18:22 11.1 °C 9.6 °C 1020.9 hPa West 1.9 km/h 1.9 km/h 90% 0 mm WeatherDisplay:10.37 W/m2 OVC
18:28 11.1 °C 9.6 °C 1020.9 hPa West 1.9 km/h   90% 0 mm WeatherDisplay:10.37 W/m2 OVC
18:33 11.1 °C 9.5 °C 1021.2 hPa Calm     90% 0 mm WeatherDisplay:10.37 W/m2 OVC
18:38 11 °C 9.4 °C 1021.2 hPa Calm     90% 0 mm WeatherDisplay:10.37 W/m2 OVC
18:43 10.9 °C 9.4 °C 1021.2 hPa WSW 1.9 km/h   90% 0 mm WeatherDisplay:10.37 W/m2 OVC
18:48 10.8 °C 9.3 °C 1021.6 hPa Calm     90% 0 mm WeatherDisplay:10.37 W/m2 OVC
18:53 10.7 °C 9.2 °C 1021.6 hPa Calm     90% 0 mm WeatherDisplay:10.37 W/m2 OVC
18:58 10.6 °C 9.2 °C 1021.6 hPa Calm     91% 0 mm WeatherDisplay:10.37 W/m2 OVC
19:03 10.5 °C 9.1 °C 1021.6 hPa Calm     91% 0 mm WeatherDisplay:10.37 W/m2 BKN
19:08 10.3 °C 8.9 °C 1021.6 hPa Calm     91% 0 mm WeatherDisplay:10.37 W/m2 BKN
19:13 10.2 °C 8.8 °C 1021.2 hPa Calm     91% 0 mm WeatherDisplay:10.37 W/m2 BKN
19:18 10.1 °C 8.7 °C 1020.2 hPa Calm     91% 0 mm WeatherDisplay:10.37 W/m2 SCT
19:23 10 °C 8.6 °C 1020.2 hPa Calm     91% 0 mm WeatherDisplay:10.37 W/m2 SCT
19:28 10 °C 8.6 °C 1020.2 hPa Calm     91% 0 mm WeatherDisplay:10.37 W/m2 SCT
19:33 10 °C 8.6 °C 1020.2 hPa Calm     91% 0 mm WeatherDisplay:10.37 W/m2 SCT
19:38 10 °C 8.6 °C 1020.2 hPa Calm     91% 0 mm WeatherDisplay:10.37 W/m2 SCT
19:43 10 °C 8.6 °C 1020.2 hPa Calm     91% 0 mm WeatherDisplay:10.37 W/m2 SCT
19:48 10 °C 8.6 °C 1020.2 hPa Calm     91% 0 mm WeatherDisplay:10.37 W/m2 SCT
19:53 10 °C 8.6 °C 1020.2 hPa Calm     91% 0 mm WeatherDisplay:10.37 W/m2 SCT
19:58 10 °C 8.6 °C 1020.2 hPa Calm     91% 0 mm WeatherDisplay:10.37 W/m2 SCT
20:03 10 °C 8.6 °C 1020.5 hPa Calm     91% 0 mm WeatherDisplay:10.37 W/m2 CLR
20:09 10 °C 8.6 °C 1020.5 hPa Calm     91% 0 mm WeatherDisplay:10.37 W/m2 CLR
20:14 10 °C 8.6 °C 1020.5 hPa Calm     91% 0 mm WeatherDisplay:10.37 W/m2 CLR
20:19 10 °C 8.6 °C 1020.5 hPa Calm     91% 0 mm WeatherDisplay:10.37 W/m2 CLR
20:24 10 °C 8.6 °C 1020.5 hPa Calm     91% 0 mm WeatherDisplay:10.37 W/m2 CLR
20:29 10 °C 8.6 °C 1020.5 hPa Calm     91% 0 mm WeatherDisplay:10.37 W/m2 CLR
20:34 10 °C 8.6 °C 1020.5 hPa Calm     91% 0 mm WeatherDisplay:10.37 W/m2 CLR
20:39 10 °C 8.6 °C 1020.5 hPa Calm     91% 0 mm WeatherDisplay:10.37 W/m2 CLR
20:44 10 °C 8.6 °C 1020.5 hPa Calm     91% 0 mm WeatherDisplay:10.37 W/m2 CLR
20:49 10 °C 8.6 °C 1020.5 hPa Calm     91% 0 mm WeatherDisplay:10.37 W/m2 CLR
20:54 10 °C 8.6 °C 1020.5 hPa Calm     91% 0 mm WeatherDisplay:10.37 W/m2 CLR
20:59 10 °C 8.6 °C 1020.5 hPa Calm     91% 0 mm WeatherDisplay:10.37 W/m2 CLR
21:04 8.7 °C 7.6 °C 1020.5 hPa Calm     93% 0 mm WeatherDisplay:10.37 W/m2 CLR
21:09 8.6 °C 7.6 °C 1020.5 hPa Calm     93% 0 mm WeatherDisplay:10.37 W/m2 CLR
21:14 8.6 °C 7.6 °C 1020.5 hPa Calm     93% 0 mm WeatherDisplay:10.37 W/m2 CLR
21:15 8.6 °C 7.6 °C 1020.5 hPa Calm     93% 0 mm WeatherDisplay:10.37 W/m2 CLR
21:20 8.6 °C 7.5 °C 1020.5 hPa Calm     93% 0 mm WeatherDisplay:10.37 W/m2 CLR
21:25 8.6 °C 7.5 °C 1020.5 hPa Calm     93% 0 mm WeatherDisplay:10.37 W/m2 CLR
21:30 8.5 °C 7.4 °C 1020.5 hPa Calm     93% 0 mm WeatherDisplay:10.37 W/m2 CLR
21:35 8.5 °C 7.4 °C 1020.5 hPa Calm     93% 0 mm WeatherDisplay:10.37 W/m2 CLR
21:40 8.5 °C 7.4 °C 1020.5 hPa Calm     93% 0 mm WeatherDisplay:10.37 W/m2 CLR
21:45 8.4 °C 7.4 °C 1020.5 hPa Calm     93% 0 mm WeatherDisplay:10.37 W/m2 CLR
21:50 8.4 °C 7.3 °C 1020.5 hPa Calm     93% 0 mm WeatherDisplay:10.37 W/m2 CLR
21:55 8.4 °C 7.3 °C 1020.5 hPa Calm     93% 0 mm WeatherDisplay:10.37 W/m2 CLR
22:00 8.3 °C 7.2 °C 1020.5 hPa Calm     93% 0 mm WeatherDisplay:10.37 W/m2 CLR
22:05 8.2 °C 7.2 °C 1020.9 hPa Calm     93% 0 mm WeatherDisplay:10.37 W/m2 CLR
22:10 8.2 °C 7.2 °C 1020.9 hPa Calm     93% 0 mm WeatherDisplay:10.37 W/m2 CLR
22:15 8.1 °C 7.1 °C 1020.9 hPa Calm     93% 0 mm WeatherDisplay:10.37 W/m2 CLR
22:20 8.1 °C 7 °C 1020.9 hPa Calm     93% 0 mm WeatherDisplay:10.37 W/m2 CLR
22:25 8.1 °C 7 °C 1020.9 hPa Calm     93% 0 mm WeatherDisplay:10.37 W/m2 CLR
22:30 8 °C 6.9 °C 1020.9 hPa Calm     93% 0 mm WeatherDisplay:10.37 W/m2 CLR
22:35 7.9 °C 6.9 °C 1020.9 hPa Calm     93% 0 mm WeatherDisplay:10.37 W/m2 CLR
22:40 7.9 °C 6.8 °C 1020.9 hPa Calm     93% 0 mm WeatherDisplay:10.37 W/m2 CLR
22:45 7.8 °C 6.8 °C 1020.9 hPa Calm     93% 0 mm WeatherDisplay:10.37 W/m2 CLR
22:50 7.8 °C 6.7 °C 1020.9 hPa Calm     93% 0 mm WeatherDisplay:10.37 W/m2 CLR
22:55 7.8 °C 6.7 °C 1020.9 hPa Calm     93% 0 mm WeatherDisplay:10.37 W/m2 CLR
23:00 7.8 °C 6.9 °C 1020.9 hPa Calm     94% 0 mm WeatherDisplay:10.37 W/m2 CLR
23:05 7.8 °C 6.9 °C 1020.9 hPa Calm     94% 0 mm WeatherDisplay:10.37 W/m2 CLR
23:10 7.8 °C 6.9 °C 1020.9 hPa Calm     94% 0 mm WeatherDisplay:10.37 W/m2 CLR
23:15 7.8 °C 6.9 °C 1020.9 hPa Calm     94% 0 mm WeatherDisplay:10.37 W/m2 CLR
23:20 7.7 °C 6.8 °C 1020.9 hPa Calm     94% 0 mm WeatherDisplay:10.37 W/m2 CLR
23:25 7.6 °C 6.7 °C 1020.9 hPa Calm     94% 0 mm WeatherDisplay:10.37 W/m2 CLR
23:30 7.6 °C 6.7 °C 1020.9 hPa Calm     94% 0 mm WeatherDisplay:10.37 W/m2 CLR
23:35 7.6 °C 6.7 °C 1020.9 hPa Calm     94% 0 mm WeatherDisplay:10.37 W/m2 CLR
23:40 7.5 °C 6.6 °C 1020.9 hPa Calm     94% 0 mm WeatherDisplay:10.37 W/m2 CLR
23:45 7.4 °C 6.6 °C 1020.9 hPa Calm     94% 0 mm WeatherDisplay:10.37 W/m2 CLR
23:50 7.4 °C 6.5 °C 1020.9 hPa Calm     94% 0 mm WeatherDisplay:10.37 W/m2 CLR
23:55 7.4 °C 6.5 °C 1020.9 hPa Calm     94% 0 mm WeatherDisplay:10.37 W/m2 CLR
Piedmont Bend
Compliments of Weather Underground - 4 mb